Terminal Aerodrome Forecast
Issued by NWS Louisville, KY

Home | Current Version | Previous Version | Text Only | Print | Product List | Glossary On
Versions: 1 2 3 4 5 6 7 8 9 10 11 12 13 14 15 16 17 18 19 20
000
FTUS43 KLMK 171600 AAB
TAFSDF
TAF AMD
KSDF 171619Z 1716/1818 28007KT P6SM OVC021
      TEMPO 1717/1718 BKN019
     FM172100 29005KT P6SM BKN022
     FM180600 35003KT P6SM SCT020 BKN100=

USA.gov is the U.S. government's official web portal to all federal, state and local government web resources and services.